Private Wetterstation Wechselburg
Wetterdaten: Sonntag, 29.09.2013
Datum Zeit Temp. +2m Bodentemp. Temp.+5cm Temp. Wind Windchill X Diff Temp. Feuchte +2m Feuchte +5cm Sonnenschein Luftdruck Regen Wind Richtung Richtung Sonnenschein UV Taupunkt Windchill Windben
29.09.2013 00:00 4,9 C 19,5 C 5,9 C 4,7 C 4,2 C 0,0 C 85 % 84 % 0 % 1015,1 hPa 0,0 l/m 0,0 km/h (0 Bft) N-NW 337 0 min 0,0 UV-I 2,6 C 4,2 C 0,0 km/h (0 Bft)
29.09.2013 00:05 4,8 C 19,5 C 5,9 C 4,6 C 4,3 C 0,0 C 86 % 84 % 0 % 1015,1 hPa 0,0 l/m 0,0 km/h (0 Bft) N-NW 337 0 min 0,0 UV-I 2,7 C 4,3 C 0,0 km/h (0 Bft)
29.09.2013 00:10 4,7 C 19,5 C 5,9 C 4,6 C 4,5 C 0,0 C 86 % 84 % 0 % 1015,4 hPa 0,0 l/m 0,0 km/h (0 Bft) N 360 0 min 0,0 UV-I 2,6 C 4,5 C 0,0 km/h (0 Bft)
29.09.2013 00:15 4,7 C 19,5 C 6,0 C 4,6 C 4,5 C 0,0 C 86 % 84 % 0 % 1015,4 hPa 0,0 l/m 0,0 km/h (0 Bft) SW 225 0 min 0,0 UV-I 2,6 C 4,5 C 0,0 km/h (0 Bft)
29.09.2013 00:20 4,5 C 19,5 C 5,8 C 4,4 C 4,2 C 0,0 C 86 % 84 % 0 % 1015,4 hPa 0,0 l/m 0,0 km/h (0 Bft) O 90 0 min 0,0 UV-I 2,4 C 4,2 C 0,0 km/h (0 Bft)
29.09.2013 00:25 4,5 C 19,5 C 5,7 C 4,4 C 4,1 C 0,0 C 86 % 84 % 0 % 1015,4 hPa 0,0 l/m 0,0 km/h (0 Bft) N-NO 22 0 min 0,0 UV-I 2,4 C 4,1 C 0,0 km/h (0 Bft)
29.09.2013 00:30 4,4 C 19,5 C 5,6 C 4,3 C 4,1 C 0,0 C 86 % 84 % 0 % 1015,1 hPa 0,0 l/m 0,0 km/h (0 Bft) O-NO 67 0 min 0,0 UV-I 2,3 C 4,1 C 0,0 km/h (0 Bft)
29.09.2013 00:35 4,3 C 19,5 C 5,7 C 4,2 C 4,1 C 0,0 C 86 % 84 % 0 % 1015,1 hPa 0,0 l/m 0,0 km/h (0 Bft) O-NO 67 0 min 0,0 UV-I 2,2 C 4,1 C 0,0 km/h (0 Bft)
29.09.2013 00:42 4,3 C 19,5 C 5,6 C 4,2 C 4,1 C 0,0 C 87 % 84 % 0 % 1015,1 hPa 0,0 l/m 0,0 km/h (0 Bft) N 0 0 min 0,0 UV-I 2,3 C 4,1 C 0,0 km/h (0 Bft)
29.09.2013 00:58 4,2 C 19,5 C 5,5 C 4,2 C 4,2 C 0,0 C 87 % 84 % 0 % 1015,6 hPa 0,0 l/m 0,0 km/h (0 Bft) O-NO 67 0 min 0,0 UV-I 2,2 C 4,2 C 0,0 km/h (0 Bft)
29.09.2013 01:00 4,2 C 19,5 C 5,5 C 4,2 C 4,2 C 0,0 C 87 % 84 % 0 % 1015,6 hPa 0,0 l/m 0,0 km/h (0 Bft) O-NO 67 0 min 0,0 UV-I 2,2 C 4,2 C 0,0 km/h (0 Bft)
29.09.2013 01:05 4,2 C 19,5 C 5,5 C 4,3 C 4,3 C 0,1 C 87 % 84 % 0 % 1015,6 hPa 0,0 l/m 0,0 km/h (0 Bft) O-NO 67 0 min 0,0 UV-I 2,2 C 4,3 C 0,0 km/h (0 Bft)
29.09.2013 01:10 4,3 C 19,5 C 5,4 C 4,3 C 4,3 C 0,0 C 87 % 84 % 0 % 1015,5 hPa 0,0 l/m 0,0 km/h (0 Bft) O-NO 67 0 min 0,0 UV-I 2,3 C 4,3 C 0,0 km/h (0 Bft)
29.09.2013 01:15 4,2 C 19,5 C 5,4 C 4,3 C 4,3 C 0,1 C 88 % 84 % 0 % 1015,5 hPa 0,0 l/m 0,0 km/h (0 Bft) O-NO 67 0 min 0,0 UV-I 2,4 C 4,3 C 0,0 km/h (0 Bft)
29.09.2013 01:20 4,1 C 19,5 C 5,3 C 4,1 C 4,1 C 0,0 C 87 % 84 % 0 % 1015,5 hPa 0,0 l/m 0,0 km/h (0 Bft) NO 45 0 min 0,0 UV-I 2,1 C 4,1 C 0,0 km/h (0 Bft)
29.09.2013 01:25 4,0 C 19,5 C 5,2 C 4,0 C 4,0 C 0,0 C 87 % 84 % 0 % 1015,5 hPa 0,0 l/m 0,0 km/h (0 Bft) NO 45 0 min 0,0 UV-I 2,0 C 4,0 C 0,0 km/h (0 Bft)
29.09.2013 01:30 3,9 C 19,5 C 5,2 C 3,8 C 3,7 C 0,0 C 87 % 84 % 0 % 1015,5 hPa 0,0 l/m 0,0 km/h (0 Bft) NO 45 0 min 0,0 UV-I 1,9 C 3,7 C 0,0 km/h (0 Bft)
29.09.2013 01:35 3,8 C 19,4 C 5,1 C 3,8 C 3,7 C 0,0 C 87 % 84 % 0 % 1015,5 hPa 0,0 l/m 0,0 km/h (0 Bft) NO 45 0 min 0,0 UV-I 1,8 C 3,7 C 0,0 km/h (0 Bft)
29.09.2013 01:40 3,7 C 19,4 C 5,1 C 3,7 C 3,6 C 0,0 C 87 % 85 % 0 % 1015,5 hPa 0,0 l/m 0,0 km/h (0 Bft) NW 315 0 min 0,0 UV-I 1,7 C 3,6 C 0,0 km/h (0 Bft)
29.09.2013 01:45 3,7 C 19,4 C 5,1 C 3,6 C 3,5 C 0,0 C 88 % 85 % 0 % 1015,5 hPa 0,0 l/m 0,0 km/h (0 Bft) W 270 0 min 0,0 UV-I 1,9 C 3,5 C 0,0 km/h (0 Bft)
29.09.2013 01:50 3,6 C 19,4 C 5,1 C 3,6 C 3,5 C 0,0 C 87 % 84 % 0 % 1014,9 hPa 0,0 l/m 0,0 km/h (0 Bft) O-NO 67 0 min 0,0 UV-I 1,6 C 3,5 C 0,0 km/h (0 Bft)
29.09.2013 01:55 3,5 C 19,4 C 5,0 C 3,5 C 3,4 C 0,0 C 87 % 85 % 0 % 1014,9 hPa 0,0 l/m 0,0 km/h (0 Bft) O-NO 67 0 min 0,0 UV-I 1,5 C 3,4 C 0,0 km/h (0 Bft)
29.09.2013 02:00 3,4 C 19,4 C 4,9 C 3,4 C 3,3 C 0,0 C 87 % 85 % 0 % 1014,9 hPa 0,0 l/m 0,0 km/h (0 Bft) O-NO 67 0 min 0,0 UV-I 1,4 C 3,3 C 0,0 km/h (0 Bft)
29.09.2013 02:05 3,5 C 19,4 C 4,8 C 3,4 C 3,2 C 0,0 C 87 % 85 % 0 % 1014,9 hPa 0,0 l/m 0,0 km/h (0 Bft) O-NO 67 0 min 0,0 UV-I 1,5 C 3,2 C 0,0 km/h (0 Bft)
29.09.2013 02:10 3,3 C 19,4 C 4,9 C 3,3 C 3,2 C 0,0 C 87 % 85 % 0 % 1015,5 hPa 0,0 l/m 0,0 km/h (0 Bft) N-NO 22 0 min 0,0 UV-I 1,3 C 3,2 C 0,0 km/h (0 Bft)
29.09.2013 02:15 3,3 C 19,4 C 4,8 C 3,3 C 3,3 C 0,0 C 87 % 85 % 0 % 1015,5 hPa 0,0 l/m 0,0 km/h (0 Bft) O-NO 67 0 min 0,0 UV-I 1,3 C 3,3 C 0,0 km/h (0 Bft)
29.09.2013 02:20 3,4 C 19,4 C 4,7 C 3,4 C 3,4 C 0,0 C 88 % 85 % 0 % 1015,5 hPa 0,0 l/m 0,0 km/h (0 Bft) NO 45 0 min 0,0 UV-I 1,6 C 3,4 C 0,0 km/h (0 Bft)
29.09.2013 02:25 3,4 C 19,4 C 4,7 C 3,4 C 3,4 C 0,0 C 88 % 85 % 0 % 1015,5 hPa 0,0 l/m 0,0 km/h (0 Bft) O-NO 67 0 min 0,0 UV-I 1,6 C 3,4 C 0,0 km/h (0 Bft)
29.09.2013 02:30 3,3 C 19,4 C 4,7 C 3,4 C 3,4 C 0,1 C 88 % 85 % 0 % 1015,5 hPa 0,0 l/m 0,0 km/h (0 Bft) O-NO 67 0 min 0,0 UV-I 1,5 C 3,4 C 0,0 km/h (0 Bft)
29.09.2013 02:35 3,3 C 19,3 C 4,7 C 3,3 C 3,3 C 0,0 C 88 % 85 % 0 % 1015,5 hPa 0,0 l/m 0,0 km/h (0 Bft) NO 45 0 min 0,0 UV-I 1,5 C 3,3 C 0,0 km/h (0 Bft)
29.09.2013 02:40 3,3 C 19,3 C 4,7 C 3,4 C 3,4 C 0,1 C 88 % 85 % 0 % 1015,5 hPa 0,0 l/m 0,0 km/h (0 Bft) N-NW 337 0 min 0,0 UV-I 1,5 C 3,4 C 1,9 km/h (1 Bft)
29.09.2013 02:45 3,3 C 19,3 C 4,7 C 3,5 C 3,5 C 0,2 C 88 % 85 % 0 % 1015,5 hPa 0,0 l/m 0,0 km/h (0 Bft) N 360 0 min 0,0 UV-I 1,5 C 3,5 C 0,0 km/h (0 Bft)
29.09.2013 02:50 3,3 C 19,3 C 4,7 C 3,5 C 3,5 C 0,2 C 88 % 85 % 0 % 1015,4 hPa 0,0 l/m 0,0 km/h (0 Bft) NW 315 0 min 0,0 UV-I 1,5 C 3,5 C 0,0 km/h (0 Bft)
29.09.2013 02:55 3,5 C 19,3 C 4,7 C 3,6 C 3,6 C 0,1 C 89 % 85 % 0 % 1015,4 hPa 0,0 l/m 0,0 km/h (0 Bft) NO 45 0 min 0,0 UV-I 1,9 C 3,6 C 0,0 km/h (0 Bft)
29.09.2013 03:00 3,5 C 19,3 C 4,7 C 3,7 C 3,7 C 0,2 C 89 % 85 % 0 % 1015,4 hPa 0,0 l/m 0,0 km/h (0 Bft) O 90 0 min 0,0 UV-I 1,9 C 3,7 C 2,6 km/h (1 Bft)
29.09.2013 03:05 3,5 C 19,3 C 4,8 C 3,8 C 3,8 C 0,3 C 89 % 85 % 0 % 1015,4 hPa 0,0 l/m 0,0 km/h (0 Bft) N-NW 337 0 min 0,0 UV-I 1,9 C 3,8 C 0,0 km/h (0 Bft)
29.09.2013 03:10 3,6 C 19,2 C 4,8 C 4,1 C 4,1 C 0,5 C 89 % 85 % 0 % 1014,9 hPa 0,0 l/m 0,8 km/h (0 Bft) W-SW 247 0 min 0,0 UV-I 2,0 C 4,1 C 3,9 km/h (1 Bft)
29.09.2013 03:15 3,5 C 19,2 C 4,7 C 3,9 C 3,9 C 0,4 C 89 % 85 % 0 % 1014,9 hPa 0,0 l/m 0,8 km/h (0 Bft) SW 225 0 min 0,0 UV-I 1,9 C 3,9 C 0,0 km/h (0 Bft)
29.09.2013 03:20 3,2 C 19,2 C 4,7 C 3,4 C 3,4 C 0,2 C 88 % 85 % 0 % 1014,9 hPa 0,0 l/m 0,2 km/h (0 Bft) W 270 0 min 0,0 UV-I 1,4 C 3,4 C 0,0 km/h (0 Bft)
29.09.2013 03:25 3,2 C 19,2 C 4,5 C 3,2 C 3,1 C 0,0 C 88 % 85 % 0 % 1014,9 hPa 0,0 l/m 0,0 km/h (0 Bft) W-NW 292 0 min 0,0 UV-I 1,4 C 3,1 C 0,0 km/h (0 Bft)
29.09.2013 03:30 3,1 C 19,2 C 4,5 C 3,1 C 3,1 C 0,0 C 88 % 85 % 0 % 1015,5 hPa 0,0 l/m 0,0 km/h (0 Bft) N-NW 337 0 min 0,0 UV-I 1,3 C 3,1 C 0,0 km/h (0 Bft)
29.09.2013 03:35 3,1 C 19,2 C 4,4 C 3,1 C 3,1 C 0,0 C 89 % 85 % 0 % 1015,5 hPa 0,0 l/m 0,0 km/h (0 Bft) NW 315 0 min 0,0 UV-I 1,5 C 3,1 C 0,0 km/h (0 Bft)
29.09.2013 03:40 3,1 C 19,2 C 4,5 C 3,1 C 3,1 C 0,0 C 89 % 85 % 0 % 1015,5 hPa 0,0 l/m 0,0 km/h (0 Bft) NW 315 0 min 0,0 UV-I 1,5 C 3,1 C 0,0 km/h (0 Bft)
29.09.2013 03:45 3,1 C 19,2 C 4,4 C 3,1 C 3,1 C 0,0 C 89 % 85 % 0 % 1015,5 hPa 0,0 l/m 0,0 km/h (0 Bft) N-NW 337 0 min 0,0 UV-I 1,5 C 3,1 C 0,0 km/h (0 Bft)
29.09.2013 03:50 3,1 C 19,2 C 4,4 C 3,2 C 3,2 C 0,1 C 89 % 85 % 0 % 1015,4 hPa 0,0 l/m 0,0 km/h (0 Bft) NW 315 0 min 0,0 UV-I 1,5 C 3,2 C 0,0 km/h (0 Bft)
29.09.2013 03:55 3,1 C 19,2 C 4,4 C 3,1 C 3,1 C 0,0 C 89 % 85 % 0 % 1015,4 hPa 0,0 l/m 0,0 km/h (0 Bft) S 180 0 min 0,0 UV-I 1,5 C 3,1 C 0,0 km/h (0 Bft)
29.09.2013 04:00 3,1 C 19,2 C 4,4 C 3,0 C 2,8 C 0,0 C 89 % 85 % 0 % 1015,4 hPa 0,0 l/m 0,0 km/h (0 Bft) SW 225 0 min 0,0 UV-I 1,5 C 2,8 C 0,0 km/h (0 Bft)
29.09.2013 04:05 2,9 C 19,2 C 4,3 C 2,8 C 2,5 C 0,0 C 89 % 85 % 0 % 1015,4 hPa 0,0 l/m 0,0 km/h (0 Bft) SW 225 0 min 0,0 UV-I 1,3 C 2,5 C 0,0 km/h (0 Bft)
29.09.2013 04:10 2,8 C 19,1 C 4,3 C 2,7 C 2,4 C 0,0 C 89 % 85 % 0 % 1015,4 hPa 0,0 l/m 0,0 km/h (0 Bft) SW 225 0 min 0,0 UV-I 1,2 C 2,4 C 0,0 km/h (0 Bft)
29.09.2013 04:15 2,7 C 19,2 C 4,2 C 2,6 C 2,5 C 0,0 C 89 % 85 % 0 % 1015,4 hPa 0,0 l/m 0,0 km/h (0 Bft) O 90 0 min 0,0 UV-I 1,1 C 2,5 C 0,0 km/h (0 Bft)
29.09.2013 04:20 2,6 C 19,1 C 4,3 C 2,6 C 2,5 C 0,0 C 89 % 85 % 0 % 1015,4 hPa 0,0 l/m 0,0 km/h (0 Bft) O-NO 67 0 min 0,0 UV-I 1,0 C 2,5 C 0,0 km/h (0 Bft)
29.09.2013 04:25 2,6 C 19,2 C 4,3 C 2,6 C 2,5 C 0,0 C 89 % 85 % 0 % 1015,4 hPa 0,0 l/m 0,0 km/h (0 Bft) O 90 0 min 0,0 UV-I 1,0 C 2,5 C 0,0 km/h (0 Bft)
29.09.2013 04:30 2,7 C 19,1 C 4,1 C 2,7 C 2,6 C 0,0 C 89 % 85 % 0 % 1015,3 hPa 0,0 l/m 0,0 km/h (0 Bft) NO 45 0 min 0,0 UV-I 1,1 C 2,6 C 0,0 km/h (0 Bft)
29.09.2013 04:35 2,6 C 19,1 C 4,1 C 2,6 C 2,5 C 0,0 C 89 % 85 % 0 % 1015,3 hPa 0,0 l/m 0,0 km/h (0 Bft) W 270 0 min 0,0 UV-I 1,0 C 2,5 C 0,0 km/h (0 Bft)
29.09.2013 04:40 2,7 C 19,1 C 4,1 C 2,6 C 2,3 C 0,0 C 89 % 85 % 0 % 1015,3 hPa 0,0 l/m 0,0 km/h (0 Bft) SW 225 0 min 0,0 UV-I 1,1 C 2,3 C 0,0 km/h (0 Bft)
29.09.2013 04:45 2,5 C 19,1 C 4,1 C 2,4 C 2,3 C 0,0 C 89 % 85 % 0 % 1015,3 hPa 0,0 l/m 0,0 km/h (0 Bft) O 90 0 min 0,0 UV-I 0,9 C 2,3 C 0,0 km/h (0 Bft)
29.09.2013 04:50 2,5 C 19,1 C 4,1 C 2,5 C 2,5 C 0,0 C 89 % 85 % 0 % 1015,5 hPa 0,0 l/m 0,0 km/h (0 Bft) NO 45 0 min 0,0 UV-I 0,9 C 2,5 C 0,0 km/h (0 Bft)
29.09.2013 04:55 2,4 C 19,1 C 4,0 C 2,5 C 2,5 C 0,1 C 89 % 85 % 0 % 1015,5 hPa 0,0 l/m 0,0 km/h (0 Bft) NO 45 0 min 0,0 UV-I 0,8 C 2,5 C 0,0 km/h (0 Bft)
29.09.2013 05:00 2,4 C 19,1 C 4,1 C 2,5 C 2,5 C 0,1 C 89 % 85 % 0 % 1015,5 hPa 0,0 l/m 0,0 km/h (0 Bft) N-NW 337 0 min 0,0 UV-I 0,8 C 2,5 C 0,0 km/h (0 Bft)
29.09.2013 05:05 2,5 C 19,1 C 4,0 C 2,5 C 2,5 C 0,0 C 89 % 85 % 0 % 1015,5 hPa 0,0 l/m 0,0 km/h (0 Bft) N-NO 22 0 min 0,0 UV-I 0,9 C 2,5 C 0,0 km/h (0 Bft)
29.09.2013 05:10 2,7 C 19,1 C 3,9 C 2,9 C 2,9 C 0,2 C 89 % 85 % 0 % 1015,1 hPa 0,0 l/m 0,2 km/h (0 Bft) N-NO 22 0 min 0,0 UV-I 1,1 C 2,9 C 2,9 km/h (1 Bft)
29.09.2013 05:15 2,8 C 19,1 C 4,0 C 3,0 C 3,0 C 0,2 C 90 % 85 % 0 % 1015,1 hPa 0,0 l/m 0,2 km/h (0 Bft) O-NO 67 0 min 0,0 UV-I 1,3 C 3,0 C 0,0 km/h (0 Bft)
29.09.2013 05:20 2,9 C 19,1 C 4,0 C 3,2 C 3,2 C 0,3 C 90 % 85 % 0 % 1015,1 hPa 0,0 l/m 0,2 km/h (0 Bft) N-NO 22 0 min 0,0 UV-I 1,4 C 3,2 C 0,0 km/h (0 Bft)
29.09.2013 05:25 2,9 C 19,0 C 4,0 C 3,1 C 3,1 C 0,2 C 90 % 85 % 0 % 1015,1 hPa 0,0 l/m 0,0 km/h (0 Bft) NO 45 0 min 0,0 UV-I 1,4 C 3,1 C 0,0 km/h (0 Bft)
29.09.2013 05:30 2,9 C 19,0 C 4,0 C 3,2 C 3,2 C 0,3 C 90 % 85 % 0 % 1015,2 hPa 0,0 l/m 0,2 km/h (0 Bft) NO 45 0 min 0,0 UV-I 1,4 C 3,2 C 2,6 km/h (1 Bft)
29.09.2013 05:35 3,0 C 19,0 C 4,0 C 3,3 C 3,3 C 0,3 C 90 % 85 % 0 % 1015,2 hPa 0,0 l/m 0,2 km/h (0 Bft) N-NO 22 0 min 0,0 UV-I 1,5 C 3,3 C 0,0 km/h (0 Bft)
29.09.2013 05:40 3,1 C 19,0 C 4,2 C 3,4 C 3,4 C 0,3 C 90 % 86 % 0 % 1015,2 hPa 0,0 l/m 1,3 km/h (1 Bft) O-SO 112 0 min 0,0 UV-I 1,6 C 3,4 C 5,3 km/h (1 Bft)
29.09.2013 05:45 3,2 C 19,0 C 4,6 C 3,6 C 3,6 C 0,4 C 90 % 86 % 0 % 1015,2 hPa 0,0 l/m 2,1 km/h (1 Bft) O-NO 67 0 min 0,0 UV-I 1,7 C 3,6 C 4,2 km/h (1 Bft)
29.09.2013 05:50 3,6 C 19,0 C 4,8 C 3,8 C 3,8 C 0,2 C 90 % 86 % 0 % 1015,0 hPa 0,0 l/m 3,2 km/h (1 Bft) O 90 0 min 0,0 UV-I 2,1 C 3,8 C 6,4 km/h (2 Bft)
29.09.2013 05:55 3,7 C 19,0 C 5,0 C 3,8 C 3,8 C 0,1 C 90 % 86 % 0 % 1015,0 hPa 0,0 l/m 3,4 km/h (1 Bft) O 90 0 min 0,0 UV-I 2,2 C 3,8 C 0,0 km/h (0 Bft)
29.09.2013 06:00 3,6 C 18,9 C 4,7 C 3,7 C 3,7 C 0,1 C 90 % 85 % 0 % 1015,0 hPa 0,0 l/m 1,3 km/h (1 Bft) W 270 0 min 0,0 UV-I 2,1 C 3,7 C 0,0 km/h (0 Bft)
29.09.2013 06:05 3,4 C 18,9 C 4,5 C 3,4 C 3,4 C 0,0 C 90 % 85 % 0 % 1015,0 hPa 0,0 l/m 0,3 km/h (0 Bft) W-NW 292 0 min 0,0 UV-I 1,9 C 3,4 C 0,0 km/h (0 Bft)
29.09.2013 06:10 3,3 C 18,9 C 4,3 C 3,2 C 3,0 C 0,0 C 89 % 85 % 0 % 1015,1 hPa 0,0 l/m 0,0 km/h (0 Bft) N-NW 337 0 min 0,0 UV-I 1,7 C 3,0 C 0,0 km/h (0 Bft)
29.09.2013 06:15 3,1 C 18,9 C 4,2 C 3,0 C 2,9 C 0,0 C 89 % 85 % 0 % 1015,1 hPa 0,0 l/m 0,0 km/h (0 Bft) NO 45 0 min 0,0 UV-I 1,5 C 2,9 C 0,0 km/h (0 Bft)
29.09.2013 06:20 3,1 C 18,9 C 4,1 C 3,0 C 2,9 C 0,0 C 89 % 85 % 0 % 1015,1 hPa 0,0 l/m 0,0 km/h (0 Bft) O-NO 67 0 min 0,0 UV-I 1,5 C 2,9 C 0,0 km/h (0 Bft)
29.09.2013 06:25 3,1 C 18,9 C 4,0 C 3,0 C 2,9 C 0,0 C 89 % 85 % 0 % 1015,1 hPa 0,0 l/m 0,0 km/h (0 Bft) N-NW 337 0 min 0,0 UV-I 1,5 C 2,9 C 0,0 km/h (0 Bft)
29.09.2013 06:30 3,1 C 18,9 C 4,0 C 3,0 C 2,8 C 0,0 C 89 % 85 % 0 % 1015,2 hPa 0,0 l/m 0,0 km/h (0 Bft) NO 45 0 min 0,0 UV-I 1,5 C 2,8 C 0,0 km/h (0 Bft)
29.09.2013 06:35 3,1 C 18,9 C 4,0 C 3,0 C 2,9 C 0,0 C 89 % 85 % 0 % 1015,2 hPa 0,0 l/m 0,2 km/h (0 Bft) O-SO 112 0 min 0,0 UV-I 1,5 C 2,9 C 1,6 km/h (1 Bft)
29.09.2013 06:41 3,1 C 18,9 C 4,0 C 3,1 C 3,0 C 0,0 C 89 % 85 % 0 % 1015,2 hPa 0,0 l/m 0,2 km/h (0 Bft) N 0 0 min 0,0 UV-I 1,5 C 3,0 C 0,0 km/h (0 Bft)
29.09.2013 06:58 3,5 C 18,8 C 4,6 C 3,6 C 3,6 C 0,1 C 90 % 86 % 0 % 1015,2 hPa 0,0 l/m 2,7 km/h (1 Bft) O 90 0 min 0,0 UV-I 2,0 C 3,6 C 4,2 km/h (1 Bft)
29.09.2013 07:00 3,5 C 18,8 C 4,6 C 3,6 C 3,6 C 0,1 C 90 % 86 % 0 % 1015,2 hPa 0,0 l/m 2,7 km/h (1 Bft) O 90 0 min 0,0 UV-I 2,0 C 3,6 C 4,2 km/h (1 Bft)
29.09.2013 07:05 3,6 C 18,8 C 4,8 C 3,8 C 3,8 C 0,2 C 90 % 86 % 0 % 1015,2 hPa 0,0 l/m 2,7 km/h (1 Bft) O-NO 67 0 min 0,0 UV-I 2,1 C 3,8 C 2,7 km/h (1 Bft)
29.09.2013 07:10 3,6 C 18,8 C 4,8 C 3,8 C 3,8 C 0,2 C 90 % 85 % 0 % 1014,9 hPa 0,0 l/m 1,8 km/h (1 Bft) N-NW 337 0 min 0,0 UV-I 2,1 C 3,8 C 0,0 km/h (0 Bft)
29.09.2013 07:15 3,5 C 18,8 C 4,6 C 3,7 C 3,7 C 0,2 C 90 % 85 % 0 % 1014,9 hPa 0,0 l/m 1,1 km/h (1 Bft) N-NO 22 0 min 0,0 UV-I 2,0 C 3,7 C 0,0 km/h (0 Bft)
29.09.2013 07:20 3,5 C 18,8 C 4,4 C 3,5 C 3,5 C 0,0 C 89 % 85 % 0 % 1014,9 hPa 0,0 l/m 0,5 km/h (0 Bft) SW 225 0 min 0,0 UV-I 1,9 C 3,5 C 0,0 km/h (0 Bft)
29.09.2013 07:25 3,3 C 18,8 C 4,3 C 3,3 C 3,3 C 0,0 C 89 % 85 % 0 % 1014,9 hPa 0,0 l/m 0,8 km/h (0 Bft) O 90 0 min 0,0 UV-I 1,7 C 3,3 C 3,2 km/h (1 Bft)
29.09.2013 07:30 3,3 C 18,8 C 4,4 C 3,4 C 3,4 C 0,1 C 89 % 85 % 3 % 1015,4 hPa 0,0 l/m 1,1 km/h (1 Bft) O-NO 67 0 min 0,0 UV-I 1,7 C 3,4 C 2,6 km/h (1 Bft)
29.09.2013 07:35 3,6 C 18,8 C 4,7 C 4,4 C 4,4 C 0,8 C 90 % 85 % 21 % 1015,4 hPa 0,0 l/m 2,6 km/h (1 Bft) NO 45 5 min 0,0 UV-I 2,1 C 4,4 C 6,4 km/h (2 Bft)
29.09.2013 07:40 4,1 C 18,7 C 5,1 C 4,7 C 4,7 C 0,6 C 90 % 85 % 16 % 1015,4 hPa 0,0 l/m 4,7 km/h (1 Bft) O-NO 67 0 min 0,0 UV-I 2,6 C 3,9 C 8,0 km/h (2 Bft)
29.09.2013 07:45 4,4 C 18,8 C 5,2 C 4,9 C 4,9 C 0,5 C 89 % 85 % 13 % 1015,4 hPa 0,0 l/m 5,0 km/h (1 Bft) O-NO 67 0 min 0,0 UV-I 2,7 C 4,0 C 7,2 km/h (2 Bft)
29.09.2013 07:50 4,6 C 18,7 C 5,5 C 6,3 C 6,3 C 1,7 C 88 % 85 % 45 % 1015,2 hPa 0,0 l/m 4,2 km/h (1 Bft) O-NO 67 5 min 0,0 UV-I 2,8 C 6,3 C 7,6 km/h (2 Bft)
29.09.2013 07:55 4,9 C 18,7 C 5,5 C 7,1 C 7,1 C 2,2 C 88 % 85 % 58 % 1015,2 hPa 0,0 l/m 3,7 km/h (1 Bft) O 90 5 min 0,0 UV-I 3,1 C 7,1 C 2,6 km/h (1 Bft)
29.09.2013 08:00 5,3 C 18,7 C 5,7 C 8,1 C 8,1 C 2,8 C 87 % 84 % 74 % 1015,2 hPa 0,0 l/m 3,5 km/h (1 Bft) O-NO 67 5 min 0,0 UV-I 3,3 C 8,1 C 3,1 km/h (1 Bft)
29.09.2013 08:05 5,6 C 18,7 C 5,7 C 8,6 C 8,6 C 3,0 C 87 % 84 % 79 % 1015,2 hPa 0,0 l/m 3,1 km/h (1 Bft) O-SO 112 5 min 0,0 UV-I 3,6 C 8,6 C 3,7 km/h (1 Bft)
29.09.2013 08:10 5,9 C 18,7 C 5,9 C 8,9 C 8,9 C 3,0 C 86 % 84 % 79 % 1015,4 hPa 0,0 l/m 3,1 km/h (1 Bft) O 90 5 min 0,0 UV-I 3,7 C 8,9 C 2,4 km/h (1 Bft)
29.09.2013 08:15 6,1 C 18,6 C 6,1 C 8,0 C 8,0 C 1,9 C 85 % 84 % 50 % 1015,4 hPa 0,0 l/m 3,1 km/h (1 Bft) SO 135 5 min 0,0 UV-I 3,8 C 8,0 C 1,6 km/h (1 Bft)
29.09.2013 08:20 6,5 C 18,7 C 6,0 C 7,1 C 7,1 C 0,6 C 85 % 84 % 16 % 1015,4 hPa 0,0 l/m 2,6 km/h (1 Bft) O-SO 112 0 min 0,0 UV-I 4,2 C 7,1 C 2,3 km/h (1 Bft)
29.09.2013 08:25 6,5 C 18,7 C 5,9 C 6,7 C 6,7 C 0,2 C 84 % 84 % 5 % 1015,4 hPa 0,0 l/m 2,1 km/h (1 Bft) O-NO 67 0 min 0,0 UV-I 4,0 C 6,7 C 3,1 km/h (1 Bft)
29.09.2013 08:30 6,7 C 18,6 C 6,1 C 6,7 C 6,6 C 0,0 C 84 % 84 % 0 % 1015,1 hPa 0,0 l/m 2,7 km/h (1 Bft) O-NO 67 0 min 0,0 UV-I 4,2 C 6,6 C 5,5 km/h (1 Bft)
29.09.2013 08:35 6,7 C 18,6 C 6,4 C 6,6 C 6,3 C 0,0 C 83 % 83 % 0 % 1015,1 hPa 0,0 l/m 4,3 km/h (1 Bft) O-NO 67 0 min 0,0 UV-I 4,0 C 6,3 C 7,2 km/h (2 Bft)
29.09.2013 08:40 6,8 C 18,6 C 6,7 C 6,6 C 6,1 C 0,0 C 83 % 83 % 0 % 1015,1 hPa 0,0 l/m 5,5 km/h (1 Bft) O-NO 67 0 min 0,0 UV-I 4,1 C 5,2 C 9,5 km/h (2 Bft)
29.09.2013 08:45 6,9 C 18,6 C 6,8 C 6,6 C 6,1 C 0,0 C 82 % 83 % 0 % 1015,1 hPa 0,0 l/m 5,5 km/h (1 Bft) O-NO 67 0 min 0,0 UV-I 4,0 C 5,2 C 5,3 km/h (1 Bft)
29.09.2013 08:50 7,2 C 18,6 C 7,0 C 6,9 C 6,3 C 0,0 C 82 % 82 % 0 % 1015,4 hPa 0,0 l/m 6,0 km/h (2 Bft) O-NO 67 0 min 0,0 UV-I 4,3 C 5,2 C 9,0 km/h (2 Bft)
29.09.2013 08:55 7,3 C 18,6 C 7,1 C 7,0 C 6,3 C 0,0 C 82 % 82 % 0 % 1015,4 hPa 0,0 l/m 6,4 km/h (2 Bft) O 90 0 min 0,0 UV-I 4,4 C 5,1 C 9,5 km/h (2 Bft)
29.09.2013 09:00 7,5 C 18,6 C 7,5 C 7,2 C 6,6 C 0,0 C 81 % 82 % 0 % 1015,4 hPa 0,0 l/m 6,4 km/h (2 Bft) O 90 0 min 0,0 UV-I 4,5 C 5,4 C 12,6 km/h (3 Bft)
29.09.2013 09:05 7,6 C 18,5 C 7,5 C 7,3 C 6,8 C 0,0 C 81 % 81 % 0 % 1015,4 hPa 0,0 l/m 6,3 km/h (2 Bft) O 90 0 min 0,0 UV-I 4,6 C 5,7 C 7,4 km/h (2 Bft)
29.09.2013 09:10 7,9 C 18,4 C 7,6 C 7,6 C 7,1 C 0,0 C 80 % 81 % 0 % 1015,6 hPa 0,0 l/m 6,6 km/h (2 Bft) O-SO 112 0 min 0,0 UV-I 4,7 C 6,0 C 13,0 km/h (3 Bft)
29.09.2013 09:15 8,0 C 18,4 C 7,7 C 7,8 C 7,3 C 0,0 C 80 % 81 % 0 % 1015,6 hPa 0,0 l/m 6,4 km/h (2 Bft) O 90 0 min 0,0 UV-I 4,8 C 6,3 C 9,3 km/h (2 Bft)
29.09.2013 09:20 8,3 C 18,4 C 7,9 C 8,0 C 7,4 C 0,0 C 79 % 80 % 0 % 1015,6 hPa 0,0 l/m 6,4 km/h (2 Bft) O-SO 112 0 min 0,0 UV-I 4,9 C 6,4 C 6,1 km/h (2 Bft)
29.09.2013 09:25 8,4 C 18,4 C 8,0 C 8,1 C 7,6 C 0,0 C 79 % 80 % 0 % 1015,6 hPa 0,0 l/m 7,2 km/h (2 Bft) O-NO 67 0 min 0,0 UV-I 5,0 C 6,4 C 10,9 km/h (2 Bft)
29.09.2013 09:30 8,7 C 18,4 C 8,3 C 8,4 C 7,9 C 0,0 C 78 % 80 % 0 % 1015,5 hPa 0,0 l/m 7,1 km/h (2 Bft) O-SO 112 0 min 0,0 UV-I 5,1 C 6,8 C 9,3 km/h (2 Bft)
29.09.2013 09:35 8,7 C 18,4 C 8,4 C 8,5 C 8,0 C 0,0 C 77 % 79 % 0 % 1015,5 hPa 0,0 l/m 7,1 km/h (2 Bft) O 90 0 min 0,0 UV-I 4,9 C 6,9 C 9,0 km/h (2 Bft)
29.09.2013 09:40 8,9 C 18,4 C 8,6 C 8,7 C 8,3 C 0,0 C 77 % 79 % 0 % 1015,5 hPa 0,0 l/m 6,9 km/h (2 Bft) O-NO 67 0 min 0,0 UV-I 5,1 C 7,3 C 8,5 km/h (2 Bft)
29.09.2013 09:45 9,1 C 18,4 C 8,8 C 8,9 C 8,5 C 0,0 C 76 % 79 % 0 % 1015,5 hPa 0,0 l/m 6,9 km/h (2 Bft) O-NO 67 0 min 0,0 UV-I 5,1 C 7,5 C 7,4 km/h (2 Bft)
29.09.2013 09:50 9,3 C 18,4 C 8,8 C 9,1 C 8,8 C 0,0 C 76 % 79 % 0 % 1015,2 hPa 0,0 l/m 6,6 km/h (2 Bft) O 90 0 min 0,0 UV-I 5,3 C 7,9 C 7,2 km/h (2 Bft)
29.09.2013 09:55 9,5 C 18,4 C 8,9 C 9,4 C 9,2 C 0,0 C 76 % 79 % 0 % 1015,2 hPa 0,0 l/m 6,0 km/h (2 Bft) O-NO 67 0 min 0,0 UV-I 5,5 C 8,6 C 6,4 km/h (2 Bft)
29.09.2013 10:00 9,6 C 18,4 C 9,2 C 9,6 C 9,6 C 0,0 C 74 % 78 % 0 % 1015,2 hPa 0,0 l/m 6,1 km/h (2 Bft) O-NO 67 0 min 0,0 UV-I 5,2 C 9,0 C 13,5 km/h (3 Bft)
29.09.2013 10:05 9,9 C 18,4 C 9,4 C 9,9 C 9,8 C 0,0 C 74 % 78 % 0 % 1015,2 hPa 0,0 l/m 6,0 km/h (2 Bft) O-NO 67 0 min 0,0 UV-I 5,5 C 9,2 C 6,3 km/h (2 Bft)
29.09.2013 10:10 10,0 C 18,4 C 9,6 C 10,7 C 10,7 C 0,7 C 74 % 77 % 18 % 1015,4 hPa 0,0 l/m 6,8 km/h (2 Bft) O-NO 67 0 min 0,0 UV-I 5,6 C 10,7 C 12,7 km/h (3 Bft)
29.09.2013 10:15 10,1 C 18,4 C 9,7 C 10,5 C 10,5 C 0,4 C 74 % 77 % 11 % 1015,4 hPa 0,0 l/m 7,1 km/h (2 Bft) O-NO 67 0 min 0,0 UV-I 5,7 C 10,5 C 9,2 km/h (2 Bft)
29.09.2013 10:20 10,3 C 18,4 C 10,0 C 10,5 C 10,5 C 0,2 C 72 % 76 % 5 % 1015,4 hPa 0,0 l/m 6,9 km/h (2 Bft) O 90 0 min 0,0 UV-I 5,5 C 10,5 C 8,0 km/h (2 Bft)
29.09.2013 10:25 10,5 C 18,4 C 10,2 C 10,8 C 10,8 C 0,3 C 72 % 76 % 8 % 1015,4 hPa 0,0 l/m 6,1 km/h (2 Bft) O-NO 67 0 min 0,0 UV-I 5,7 C 10,8 C 7,1 km/h (2 Bft)
29.09.2013 10:30 10,7 C 18,4 C 10,3 C 10,9 C 10,9 C 0,2 C 72 % 76 % 5 % 1015,6 hPa 0,0 l/m 6,1 km/h (2 Bft) O 90 0 min 0,0 UV-I 5,9 C 10,9 C 9,0 km/h (2 Bft)
29.09.2013 10:35 10,8 C 18,4 C 10,4 C 10,8 C 10,8 C 0,0 C 70 % 75 % 0 % 1015,6 hPa 0,0 l/m 7,1 km/h (2 Bft) O-NO 67 0 min 0,0 UV-I 5,6 C 10,8 C 6,4 km/h (2 Bft)
29.09.2013 10:40 11,1 C 18,4 C 10,6 C 11,2 C 11,1 C 0,1 C 70 % 75 % 3 % 1015,6 hPa 0,0 l/m 7,7 km/h (2 Bft) O-NO 67 0 min 0,0 UV-I 5,8 C 11,1 C 5,0 km/h (1 Bft)
29.09.2013 10:45 11,2 C 18,4 C 10,7 C 11,5 C 11,5 C 0,3 C 68 % 74 % 8 % 1015,6 hPa 0,0 l/m 7,1 km/h (2 Bft) O-NO 67 0 min 0,0 UV-I 5,5 C 11,5 C 9,0 km/h (2 Bft)
29.09.2013 10:50 11,4 C 18,4 C 10,9 C 11,6 C 11,6 C 0,2 C 68 % 73 % 5 % 1015,4 hPa 0,0 l/m 7,2 km/h (2 Bft) O-NO 67 0 min 0,0 UV-I 5,7 C 11,6 C 13,7 km/h (3 Bft)
29.09.2013 10:55 11,5 C 18,4 C 11,1 C 11,7 C 11,5 C 0,2 C 68 % 73 % 5 % 1015,4 hPa 0,0 l/m 7,9 km/h (2 Bft) O 90 0 min 0,0 UV-I 5,8 C 11,5 C 12,4 km/h (3 Bft)
29.09.2013 11:00 11,7 C 18,4 C 11,2 C 11,7 C 11,7 C 0,0 C 66 % 71 % 0 % 1015,4 hPa 0,0 l/m 7,6 km/h (2 Bft) O-NO 67 0 min 0,0 UV-I 5,6 C 11,7 C 7,6 km/h (2 Bft)
29.09.2013 11:05 11,8 C 18,4 C 11,2 C 12,0 C 12,0 C 0,2 C 66 % 71 % 5 % 1015,4 hPa 0,0 l/m 6,9 km/h (2 Bft) O 90 0 min 0,0 UV-I 5,7 C 12,0 C 11,9 km/h (2 Bft)
29.09.2013 11:10 12,0 C 18,5 C 11,5 C 12,1 C 11,9 C 0,1 C 64 % 70 % 3 % 1015,2 hPa 0,0 l/m 7,7 km/h (2 Bft) O 90 0 min 0,0 UV-I 5,4 C 11,9 C 7,2 km/h (2 Bft)
29.09.2013 11:15 12,2 C 18,5 C 11,6 C 12,3 C 12,2 C 0,1 C 65 % 71 % 3 % 1015,2 hPa 0,0 l/m 7,9 km/h (2 Bft) S-SO 157 0 min 0,0 UV-I 5,8 C 12,2 C 7,4 km/h (2 Bft)
29.09.2013 11:20 12,4 C 18,4 C 11,7 C 13,0 C 13,0 C 0,6 C 65 % 71 % 16 % 1015,2 hPa 0,0 l/m 5,6 km/h (1 Bft) O-NO 67 0 min 0,0 UV-I 6,0 C 13,0 C 5,1 km/h (1 Bft)
29.09.2013 11:25 12,7 C 18,4 C 11,9 C 13,2 C 13,2 C 0,5 C 64 % 71 % 13 % 1015,2 hPa 0,0 l/m 5,3 km/h (1 Bft) O 90 0 min 0,0 UV-I 6,1 C 13,2 C 5,1 km/h (1 Bft)
29.09.2013 11:30 12,8 C 18,4 C 12,0 C 13,2 C 13,2 C 0,4 C 62 % 70 % 11 % 1015,0 hPa 0,0 l/m 6,0 km/h (2 Bft) O-SO 112 0 min 0,0 UV-I 5,7 C 13,2 C 6,6 km/h (2 Bft)
29.09.2013 11:35 12,8 C 18,4 C 12,0 C 13,4 C 13,4 C 0,6 C 62 % 69 % 16 % 1015,0 hPa 0,0 l/m 5,8 km/h (2 Bft) O-NO 67 0 min 0,0 UV-I 5,7 C 13,4 C 7,6 km/h (2 Bft)
29.09.2013 11:40 13,0 C 18,4 C 12,1 C 13,4 C 13,4 C 0,4 C 60 % 69 % 11 % 1015,0 hPa 0,0 l/m 6,4 km/h (2 Bft) O-NO 67 0 min 0,0 UV-I 5,4 C 13,4 C 15,0 km/h (3 Bft)
29.09.2013 11:45 13,1 C 18,4 C 12,3 C 13,4 C 13,4 C 0,3 C 58 % 67 % 8 % 1015,0 hPa 0,0 l/m 6,9 km/h (2 Bft) O-NO 67 0 min 0,0 UV-I 5,0 C 13,4 C 10,3 km/h (2 Bft)
29.09.2013 11:50 13,2 C 18,4 C 12,4 C 13,4 C 13,4 C 0,2 C 58 % 66 % 5 % 1015,0 hPa 0,0 l/m 7,7 km/h (2 Bft) NO 45 0 min 0,0 UV-I 5,1 C 13,4 C 9,0 km/h (2 Bft)
29.09.2013 11:55 13,3 C 18,4 C 12,5 C 13,6 C 13,5 C 0,3 C 56 % 65 % 8 % 1015,0 hPa 0,0 l/m 8,4 km/h (2 Bft) O-NO 67 0 min 0,0 UV-I 4,7 C 13,5 C 11,6 km/h (2 Bft)
29.09.2013 12:00 13,2 C 18,4 C 12,5 C 13,5 C 13,2 C 0,3 C 56 % 65 % 8 % 1015,0 hPa 0,0 l/m 9,3 km/h (2 Bft) O 90 0 min 0,0 UV-I 4,6 C 13,2 C 17,9 km/h (3 Bft)
29.09.2013 12:05 13,2 C 18,4 C 12,5 C 13,4 C 13,1 C 0,2 C 55 % 64 % 5 % 1015,0 hPa 0,0 l/m 10,5 km/h (2 Bft) O-NO 67 0 min 0,0 UV-I 4,4 C 13,1 C 9,0 km/h (2 Bft)
29.09.2013 12:10 13,3 C 18,4 C 12,7 C 13,2 C 13,1 C 0,0 C 54 % 63 % 0 % 1014,9 hPa 0,0 l/m 10,5 km/h (2 Bft) O-NO 67 0 min 0,0 UV-I 4,2 C 13,1 C 20,8 km/h (4 Bft)
29.09.2013 12:15 13,3 C 18,4 C 12,7 C 13,4 C 13,2 C 0,1 C 55 % 63 % 3 % 1014,9 hPa 0,0 l/m 9,5 km/h (2 Bft) O 90 0 min 0,0 UV-I 4,5 C 13,2 C 9,2 km/h (2 Bft)
29.09.2013 12:20 13,5 C 18,4 C 13,0 C 13,6 C 13,6 C 0,1 C 55 % 62 % 3 % 1014,9 hPa 0,0 l/m 8,7 km/h (2 Bft) O-SO 112 0 min 0,0 UV-I 4,6 C 13,6 C 7,4 km/h (2 Bft)
29.09.2013 12:25 13,5 C 18,4 C 13,1 C 13,7 C 13,5 C 0,2 C 53 % 60 % 5 % 1014,9 hPa 0,0 l/m 9,5 km/h (2 Bft) O-NO 67 0 min 0,0 UV-I 4,1 C 13,5 C 14,0 km/h (3 Bft)
29.09.2013 12:30 13,6 C 18,5 C 13,1 C 13,6 C 13,5 C 0,0 C 52 % 59 % 0 % 1014,7 hPa 0,0 l/m 11,1 km/h (2 Bft) O-NO 67 0 min 0,0 UV-I 3,9 C 13,5 C 15,0 km/h (3 Bft)
29.09.2013 12:35 13,6 C 18,5 C 13,1 C 14,4 C 14,6 C 0,8 C 53 % 59 % 21 % 1014,7 hPa 0,0 l/m 11,9 km/h (2 Bft) O-NO 67 0 min 0,0 UV-I 4,2 C 14,6 C 14,5 km/h (3 Bft)
29.09.2013 12:41 13,6 C 18,5 C 13,2 C 15,6 C 15,9 C 2,0 C 52 % 59 % 53 % 1014,7 hPa 0,0 l/m 12,1 km/h (2 Bft) N 0 0 min 0,0 UV-I 3,9 C 15,9 C 12,4 km/h (3 Bft)
29.09.2013 12:58 14,0 C 18,5 C 13,5 C 17,5 C 17,5 C 3,5 C 52 % 58 % 92 % 1014,7 hPa 0,0 l/m 10,8 km/h (2 Bft) O 90 17 min 0,0 UV-I 4,3 C 17,5 C 13,7 km/h (3 Bft)
29.09.2013 13:00 14,0 C 18,5 C 13,5 C 17,5 C 17,5 C 3,5 C 52 % 58 % 92 % 1014,7 hPa 0,0 l/m 10,8 km/h (2 Bft) O 90 2 min 0,0 UV-I 4,3 C 17,5 C 13,7 km/h (3 Bft)
29.09.2013 13:05 14,0 C 18,5 C 13,5 C 17,5 C 17,5 C 3,5 C 53 % 59 % 92 % 1014,7 hPa 0,0 l/m 9,8 km/h (2 Bft) O-NO 67 5 min 0,0 UV-I 4,6 C 17,5 C 12,6 km/h (3 Bft)
29.09.2013 13:10 14,3 C 18,5 C 13,8 C 17,8 C 17,8 C 3,5 C 52 % 56 % 92 % 1014,8 hPa 0,0 l/m 9,2 km/h (2 Bft) O-SO 112 5 min 0,0 UV-I 4,6 C 17,8 C 10,8 km/h (2 Bft)
29.09.2013 13:15 14,3 C 18,5 C 13,9 C 17,8 C 17,8 C 3,5 C 52 % 57 % 92 % 1014,8 hPa 0,0 l/m 9,2 km/h (2 Bft) O-SO 112 5 min 0,0 UV-I 4,6 C 17,8 C 15,1 km/h (3 Bft)
29.09.2013 13:20 14,3 C 18,5 C 13,9 C 17,6 C 17,6 C 3,3 C 50 % 55 % 87 % 1014,8 hPa 0,0 l/m 10,8 km/h (2 Bft) NO 45 5 min 0,0 UV-I 4,0 C 17,6 C 14,2 km/h (3 Bft)
29.09.2013 13:25 14,3 C 18,6 C 13,8 C 17,7 C 17,7 C 3,4 C 51 % 56 % 89 % 1014,8 hPa 0,0 l/m 11,4 km/h (2 Bft) O 90 5 min 0,0 UV-I 4,3 C 17,7 C 16,3 km/h (3 Bft)
29.09.2013 13:30 14,3 C 18,6 C 13,8 C 17,8 C 17,8 C 3,5 C 50 % 55 % 92 % 1014,6 hPa 0,0 l/m 10,6 km/h (2 Bft) O-NO 67 5 min 0,0 UV-I 4,0 C 17,8 C 13,4 km/h (3 Bft)
29.09.2013 13:35 14,2 C 18,6 C 13,8 C 17,7 C 17,6 C 3,5 C 50 % 54 % 92 % 1014,6 hPa 0,0 l/m 11,4 km/h (2 Bft) NO 45 5 min 0,0 UV-I 3,9 C 17,6 C 15,6 km/h (3 Bft)
29.09.2013 13:40 14,3 C 18,6 C 13,8 C 17,5 C 17,4 C 3,2 C 51 % 55 % 84 % 1014,6 hPa 0,0 l/m 12,2 km/h (2 Bft) O 90 0 min 0,0 UV-I 4,3 C 17,4 C 23,2 km/h (4 Bft)
29.09.2013 13:45 14,5 C 18,6 C 14,0 C 17,7 C 17,7 C 3,2 C 51 % 56 % 84 % 1014,6 hPa 0,0 l/m 10,6 km/h (2 Bft) O 90 0 min 0,0 UV-I 4,5 C 17,7 C 12,1 km/h (2 Bft)
29.09.2013 13:50 14,4 C 18,6 C 14,0 C 17,3 C 17,1 C 2,9 C 50 % 56 % 76 % 1014,5 hPa 0,0 l/m 10,3 km/h (2 Bft) O-NO 67 0 min 0,0 UV-I 4,1 C 17,1 C 16,7 km/h (3 Bft)
29.09.2013 13:55 14,4 C 18,6 C 14,1 C 16,9 C 16,7 C 2,5 C 49 % 55 % 66 % 1014,5 hPa 0,0 l/m 10,6 km/h (2 Bft) O 90 0 min 0,0 UV-I 3,8 C 16,7 C 14,2 km/h (3 Bft)
29.09.2013 14:00 14,5 C 18,5 C 14,0 C 16,6 C 16,4 C 2,1 C 49 % 55 % 55 % 1014,5 hPa 0,0 l/m 12,6 km/h (3 Bft) O-NO 67 0 min 0,0 UV-I 3,9 C 16,4 C 18,5 km/h (3 Bft)
29.09.2013 14:05 14,3 C 18,5 C 14,0 C 16,4 C 16,4 C 2,1 C 49 % 54 % 55 % 1014,5 hPa 0,0 l/m 12,7 km/h (3 Bft) O-NO 67 0 min 0,0 UV-I 3,7 C 16,4 C 9,3 km/h (2 Bft)
29.09.2013 14:10 14,4 C 18,5 C 14,1 C 17,0 C 17,2 C 2,6 C 49 % 55 % 68 % 1014,3 hPa 0,0 l/m 11,4 km/h (2 Bft) O-NO 67 0 min 0,0 UV-I 3,8 C 17,2 C 15,0 km/h (3 Bft)
29.09.2013 14:15 14,5 C 18,6 C 14,1 C 17,2 C 17,2 C 2,7 C 49 % 54 % 71 % 1014,3 hPa 0,0 l/m 11,4 km/h (2 Bft) O 90 0 min 0,0 UV-I 3,9 C 17,2 C 15,9 km/h (3 Bft)
29.09.2013 14:20 14,5 C 18,6 C 14,1 C 17,0 C 16,8 C 2,5 C 49 % 54 % 66 % 1014,3 hPa 0,0 l/m 12,2 km/h (2 Bft) O-NO 67 0 min 0,0 UV-I 3,9 C 16,8 C 15,1 km/h (3 Bft)
29.09.2013 14:25 14,5 C 18,6 C 14,1 C 16,9 C 16,9 C 2,4 C 49 % 55 % 63 % 1014,3 hPa 0,0 l/m 11,6 km/h (2 Bft) O-NO 67 0 min 0,0 UV-I 3,9 C 16,9 C 8,7 km/h (2 Bft)
29.09.2013 14:30 14,6 C 18,6 C 14,3 C 17,2 C 17,3 C 2,6 C 49 % 55 % 68 % 1014,3 hPa 0,0 l/m 11,7 km/h (2 Bft) O-NO 67 0 min 0,0 UV-I 4,0 C 17,3 C 14,3 km/h (3 Bft)
29.09.2013 14:35 14,6 C 18,6 C 14,4 C 17,6 C 17,6 C 3,0 C 49 % 55 % 79 % 1014,3 hPa 0,0 l/m 10,9 km/h (2 Bft) O-SO 112 0 min 0,0 UV-I 4,0 C 17,6 C 6,6 km/h (2 Bft)
29.09.2013 14:40 14,8 C 18,6 C 14,4 C 18,0 C 18,0 C 3,2 C 48 % 55 % 84 % 1014,3 hPa 0,0 l/m 10,6 km/h (2 Bft) O-NO 67 0 min 0,0 UV-I 3,9 C 18,0 C 18,7 km/h (3 Bft)
29.09.2013 14:45 14,7 C 18,6 C 14,4 C 17,9 C 17,9 C 3,2 C 48 % 54 % 84 % 1014,3 hPa 0,0 l/m 10,9 km/h (2 Bft) O-NO 67 0 min 0,0 UV-I 3,8 C 17,9 C 9,7 km/h (2 Bft)
29.09.2013 14:50 14,8 C 18,7 C 14,4 C 18,1 C 18,1 C 3,3 C 49 % 54 % 87 % 1013,9 hPa 0,0 l/m 10,9 km/h (2 Bft) O-NO 67 5 min 0,0 UV-I 4,2 C 18,1 C 7,6 km/h (2 Bft)
29.09.2013 14:55 14,9 C 18,7 C 14,6 C 18,2 C 18,2 C 3,3 C 49 % 55 % 87 % 1013,9 hPa 0,0 l/m 9,8 km/h (2 Bft) O-NO 67 5 min 0,0 UV-I 4,3 C 18,2 C 17,5 km/h (3 Bft)
29.09.2013 15:00 14,9 C 18,7 C 14,7 C 18,4 C 18,4 C 3,5 C 48 % 54 % 92 % 1013,9 hPa 0,0 l/m 9,3 km/h (2 Bft) O-NO 67 5 min 0,0 UV-I 4,0 C 18,4 C 14,6 km/h (3 Bft)
29.09.2013 15:05 14,9 C 18,7 C 14,9 C 18,4 C 18,4 C 3,5 C 49 % 54 % 92 % 1013,9 hPa 0,0 l/m 9,5 km/h (2 Bft) O-NO 67 5 min 0,0 UV-I 4,3 C 18,4 C 10,0 km/h (2 Bft)
29.09.2013 15:10 14,9 C 18,7 C 14,9 C 18,4 C 18,4 C 3,5 C 50 % 55 % 92 % 1013,8 hPa 0,0 l/m 9,8 km/h (2 Bft) O-NO 67 5 min 0,0 UV-I 4,6 C 18,4 C 18,8 km/h (3 Bft)
29.09.2013 15:15 15,0 C 18,7 C 14,9 C 18,4 C 18,4 C 3,4 C 51 % 55 % 89 % 1013,8 hPa 0,0 l/m 9,2 km/h (2 Bft) O-NO 67 5 min 0,0 UV-I 4,9 C 18,4 C 9,2 km/h (2 Bft)
29.09.2013 15:20 15,1 C 18,7 C 14,9 C 18,2 C 18,2 C 3,1 C 50 % 54 % 82 % 1013,8 hPa 0,0 l/m 10,1 km/h (2 Bft) O-NO 67 0 min 0,0 UV-I 4,8 C 18,2 C 11,6 km/h (2 Bft)
29.09.2013 15:25 15,1 C 18,7 C 14,9 C 18,2 C 18,2 C 3,1 C 50 % 53 % 82 % 1013,8 hPa 0,0 l/m 10,8 km/h (2 Bft) O-NO 67 0 min 0,0 UV-I 4,8 C 18,2 C 19,8 km/h (3 Bft)
29.09.2013 15:30 14,9 C 18,7 C 14,9 C 18,1 C 18,1 C 3,2 C 51 % 54 % 84 % 1014,6 hPa 0,0 l/m 10,6 km/h (2 Bft) O-NO 67 0 min 0,0 UV-I 4,9 C 18,1 C 7,6 km/h (2 Bft)
29.09.2013 15:35 14,9 C 18,7 C 14,9 C 18,1 C 18,1 C 3,2 C 51 % 55 % 84 % 1014,6 hPa 0,0 l/m 11,1 km/h (2 Bft) O 90 0 min 0,0 UV-I 4,9 C 18,1 C 18,3 km/h (3 Bft)
29.09.2013 15:40 14,9 C 18,7 C 14,9 C 17,9 C 17,9 C 3,0 C 51 % 54 % 79 % 1014,6 hPa 0,0 l/m 10,9 km/h (2 Bft) O-SO 112 0 min 0,0 UV-I 4,9 C 17,9 C 9,5 km/h (2 Bft)
29.09.2013 15:45 14,9 C 18,8 C 15,0 C 18,1 C 18,1 C 3,2 C 52 % 56 % 84 % 1014,6 hPa 0,0 l/m 10,6 km/h (2 Bft) O-NO 67 0 min 0,0 UV-I 5,1 C 18,1 C 10,8 km/h (2 Bft)
29.09.2013 15:50 15,1 C 18,8 C 15,0 C 18,4 C 18,4 C 3,3 C 52 % 57 % 87 % 1014,0 hPa 0,0 l/m 8,2 km/h (2 Bft) O-NO 67 5 min 0,0 UV-I 5,3 C 18,4 C 10,3 km/h (2 Bft)
29.09.2013 15:55 15,1 C 18,8 C 15,1 C 18,5 C 18,5 C 3,4 C 52 % 55 % 89 % 1014,0 hPa 0,0 l/m 7,6 km/h (2 Bft) O-NO 67 5 min 0,0 UV-I 5,3 C 18,5 C 7,2 km/h (2 Bft)
29.09.2013 16:00 15,0 C 18,8 C 15,1 C 18,5 C 18,5 C 3,5 C 54 % 57 % 92 % 1014,0 hPa 0,0 l/m 7,9 km/h (2 Bft) O 90 5 min 0,0 UV-I 5,8 C 18,5 C 10,0 km/h (2 Bft)
29.09.2013 16:05 15,0 C 18,8 C 14,9 C 18,1 C 18,1 C 3,1 C 54 % 58 % 82 % 1014,0 hPa 0,0 l/m 9,5 km/h (2 Bft) O-NO 67 0 min 0,0 UV-I 5,8 C 18,1 C 9,5 km/h (2 Bft)
29.09.2013 16:10 14,8 C 18,8 C 14,9 C 17,9 C 17,9 C 3,1 C 55 % 58 % 82 % 1013,4 hPa 0,0 l/m 10,0 km/h (2 Bft) O-SO 112 0 min 0,0 UV-I 5,8 C 17,9 C 8,7 km/h (2 Bft)
29.09.2013 16:15 14,8 C 18,8 C 14,9 C 17,8 C 17,8 C 3,0 C 54 % 58 % 79 % 1013,4 hPa 0,0 l/m 9,8 km/h (2 Bft) O-NO 67 0 min 0,0 UV-I 5,6 C 17,8 C 13,7 km/h (3 Bft)
29.09.2013 16:20 14,9 C 18,8 C 14,8 C 17,7 C 17,6 C 2,8 C 55 % 58 % 74 % 1013,4 hPa 0,0 l/m 11,3 km/h (2 Bft) O-NO 67 0 min 0,0 UV-I 5,9 C 17,6 C 12,7 km/h (3 Bft)
29.09.2013 16:25 14,7 C 18,8 C 14,8 C 17,4 C 17,3 C 2,7 C 56 % 59 % 71 % 1013,4 hPa 0,0 l/m 11,7 km/h (2 Bft) O-NO 67 0 min 0,0 UV-I 6,0 C 17,3 C 12,6 km/h (3 Bft)
29.09.2013 16:30 14,7 C 18,8 C 14,8 C 17,3 C 17,3 C 2,6 C 56 % 58 % 68 % 1013,3 hPa 0,0 l/m 10,9 km/h (2 Bft) O 90 0 min 0,0 UV-I 6,0 C 17,3 C 16,9 km/h (3 Bft)
29.09.2013 16:35 14,7 C 18,9 C 14,7 C 17,3 C 17,2 C 2,6 C 57 % 59 % 68 % 1013,3 hPa 0,0 l/m 10,9 km/h (2 Bft) O-SO 112 0 min 0,0 UV-I 6,3 C 17,2 C 14,0 km/h (3 Bft)
29.09.2013 16:40 14,6 C 18,9 C 14,6 C 17,2 C 17,1 C 2,6 C 58 % 60 % 68 % 1013,3 hPa 0,0 l/m 11,4 km/h (2 Bft) O-NO 67 0 min 0,0 UV-I 6,4 C 17,1 C 11,3 km/h (2 Bft)
29.09.2013 16:45 14,5 C 18,9 C 14,6 C 16,9 C 16,8 C 2,4 C 58 % 60 % 63 % 1013,3 hPa 0,0 l/m 11,3 km/h (2 Bft) O-NO 67 0 min 0,0 UV-I 6,3 C 16,8 C 11,9 km/h (2 Bft)
29.09.2013 16:50 14,5 C 18,9 C 14,4 C 16,8 C 16,7 C 2,3 C 58 % 61 % 61 % 1013,6 hPa 0,0 l/m 10,9 km/h (2 Bft) O-NO 67 0 min 0,0 UV-I 6,3 C 16,7 C 9,7 km/h (2 Bft)
29.09.2013 16:55 14,4 C 18,9 C 14,5 C 16,8 C 16,8 C 2,4 C 58 % 61 % 63 % 1013,6 hPa 0,0 l/m 10,5 km/h (2 Bft) O-NO 67 0 min 0,0 UV-I 6,2 C 16,8 C 14,5 km/h (3 Bft)
29.09.2013 17:00 14,2 C 18,9 C 14,4 C 16,8 C 16,8 C 2,6 C 59 % 62 % 68 % 1013,6 hPa 0,0 l/m 9,7 km/h (2 Bft) O 90 0 min 0,0 UV-I 6,3 C 16,8 C 13,4 km/h (3 Bft)
29.09.2013 17:05 14,2 C 18,9 C 14,3 C 16,7 C 16,7 C 2,5 C 59 % 62 % 66 % 1013,6 hPa 0,0 l/m 9,7 km/h (2 Bft) O-SO 112 0 min 0,0 UV-I 6,3 C 16,7 C 13,8 km/h (3 Bft)
29.09.2013 17:10 14,1 C 18,9 C 14,3 C 16,6 C 16,6 C 2,5 C 59 % 62 % 66 % 1013,4 hPa 0,0 l/m 9,7 km/h (2 Bft) O-NO 67 5 min 0,0 UV-I 6,2 C 16,6 C 9,7 km/h (2 Bft)
29.09.2013 17:15 14,0 C 18,9 C 14,1 C 16,5 C 16,5 C 2,5 C 60 % 62 % 66 % 1013,4 hPa 0,0 l/m 8,9 km/h (2 Bft) O-NO 67 5 min 0,0 UV-I 6,4 C 16,5 C 15,4 km/h (3 Bft)
29.09.2013 17:20 13,9 C 18,9 C 14,0 C 16,3 C 16,1 C 2,4 C 60 % 62 % 63 % 1013,4 hPa 0,0 l/m 9,8 km/h (2 Bft) O-NO 67 5 min 0,0 UV-I 6,3 C 16,1 C 12,6 km/h (3 Bft)
29.09.2013 17:25 13,9 C 18,9 C 14,1 C 16,0 C 15,8 C 2,1 C 60 % 63 % 55 % 1013,4 hPa 0,0 l/m 10,9 km/h (2 Bft) O 90 0 min 0,0 UV-I 6,3 C 15,8 C 14,6 km/h (3 Bft)
29.09.2013 17:30 13,9 C 19,0 C 14,0 C 15,8 C 15,6 C 1,9 C 61 % 63 % 50 % 1013,3 hPa 0,0 l/m 10,5 km/h (2 Bft) O 90 0 min 0,0 UV-I 6,5 C 15,6 C 8,4 km/h (2 Bft)
29.09.2013 17:35 13,7 C 19,0 C 14,3 C 15,6 C 15,5 C 1,9 C 61 % 63 % 50 % 1013,3 hPa 0,0 l/m 10,3 km/h (2 Bft) O 90 5 min 0,0 UV-I 6,3 C 15,5 C 10,6 km/h (2 Bft)
29.09.2013 17:40 13,6 C 19,0 C 13,9 C 15,4 C 15,2 C 1,8 C 62 % 63 % 47 % 1013,3 hPa 0,0 l/m 9,7 km/h (2 Bft) O 90 5 min 0,0 UV-I 6,5 C 15,2 C 12,9 km/h (3 Bft)
29.09.2013 17:45 13,4 C 19,0 C 13,9 C 15,1 C 14,9 C 1,7 C 62 % 63 % 45 % 1013,3 hPa 0,0 l/m 9,7 km/h (2 Bft) O-NO 67 5 min 0,0 UV-I 6,3 C 14,9 C 15,8 km/h (3 Bft)
29.09.2013 17:50 13,4 C 19,0 C 13,6 C 14,5 C 14,1 C 1,1 C 62 % 64 % 29 % 1013,2 hPa 0,0 l/m 9,5 km/h (2 Bft) O 90 0 min 0,0 UV-I 6,3 C 14,1 C 14,0 km/h (3 Bft)
29.09.2013 17:55 13,3 C 19,1 C 13,5 C 14,1 C 13,9 C 0,8 C 63 % 65 % 21 % 1013,2 hPa 0,0 l/m 9,8 km/h (2 Bft) O-SO 112 0 min 0,0 UV-I 6,4 C 13,9 C 17,5 km/h (3 Bft)
29.09.2013 18:00 13,2 C 19,1 C 13,2 C 13,8 C 13,5 C 0,6 C 63 % 65 % 16 % 1013,2 hPa 0,0 l/m 10,1 km/h (2 Bft) N-NO 22 0 min 0,0 UV-I 6,3 C 13,5 C 8,0 km/h (2 Bft)
29.09.2013 18:05 13,1 C 19,1 C 13,0 C 13,5 C 13,3 C 0,4 C 63 % 66 % 11 % 1013,2 hPa 0,0 l/m 9,5 km/h (2 Bft) O-SO 112 0 min 0,0 UV-I 6,2 C 13,3 C 7,2 km/h (2 Bft)
29.09.2013 18:10 12,9 C 19,1 C 12,9 C 13,3 C 13,0 C 0,4 C 63 % 66 % 11 % 1013,6 hPa 0,0 l/m 8,7 km/h (2 Bft) O-NO 67 0 min 0,0 UV-I 6,0 C 13,0 C 10,9 km/h (2 Bft)
29.09.2013 18:15 12,8 C 19,1 C 12,8 C 13,0 C 12,7 C 0,2 C 63 % 66 % 5 % 1013,6 hPa 0,0 l/m 8,9 km/h (2 Bft) O-SO 112 0 min 0,0 UV-I 5,9 C 12,7 C 8,9 km/h (2 Bft)
29.09.2013 18:20 12,7 C 19,1 C 12,6 C 12,7 C 12,4 C 0,0 C 64 % 66 % 0 % 1013,6 hPa 0,0 l/m 9,0 km/h (2 Bft) O 90 0 min 0,0 UV-I 6,1 C 12,4 C 9,5 km/h (2 Bft)
29.09.2013 18:25 12,6 C 19,1 C 12,4 C 12,6 C 12,2 C 0,0 C 64 % 67 % 0 % 1013,6 hPa 0,0 l/m 9,0 km/h (2 Bft) O-SO 112 0 min 0,0 UV-I 6,0 C 12,2 C 8,4 km/h (2 Bft)
29.09.2013 18:30 12,5 C 19,1 C 12,2 C 12,4 C 11,9 C 0,0 C 65 % 67 % 0 % 1013,8 hPa 0,0 l/m 8,4 km/h (2 Bft) O-NO 67 0 min 0,0 UV-I 6,1 C 11,9 C 10,1 km/h (2 Bft)
29.09.2013 18:35 12,3 C 19,1 C 12,1 C 12,2 C 11,7 C 0,0 C 65 % 68 % 0 % 1013,8 hPa 0,0 l/m 7,9 km/h (2 Bft) O-NO 67 0 min 0,0 UV-I 5,9 C 11,7 C 11,7 km/h (2 Bft)
29.09.2013 18:41 12,1 C 19,1 C 11,9 C 11,9 C 11,2 C 0,0 C 66 % 69 % 0 % 1013,8 hPa 0,0 l/m 8,7 km/h (2 Bft) N 0 0 min 0,0 UV-I 5,9 C 11,2 C 12,1 km/h (2 Bft)
29.09.2013 18:58 11,7 C 19,1 C 11,5 C 11,4 C 10,3 C 0,0 C 67 % 70 % 0 % 1013,8 hPa 0,0 l/m 8,2 km/h (2 Bft) O 90 0 min 0,0 UV-I 5,8 C 10,3 C 10,9 km/h (2 Bft)
29.09.2013 19:00 11,7 C 19,1 C 11,5 C 11,2 C 10,3 C 0,0 C 67 % 70 % 0 % 1013,8 hPa 0,0 l/m 8,2 km/h (2 Bft) O 90 0 min 0,0 UV-I 5,8 C 10,3 C 10,9 km/h (2 Bft)
29.09.2013 19:05 11,7 C 19,1 C 11,3 C 11,3 C 10,2 C 0,0 C 67 % 71 % 0 % 1013,8 hPa 0,0 l/m 8,4 km/h (2 Bft) O-NO 67 0 min 0,0 UV-I 5,8 C 10,2 C 10,1 km/h (2 Bft)
29.09.2013 19:10 11,5 C 19,1 C 11,3 C 11,1 C 10,0 C 0,0 C 68 % 71 % 0 % 1013,8 hPa 0,0 l/m 8,2 km/h (2 Bft) O-NO 67 0 min 0,0 UV-I 5,8 C 9,0 C 9,5 km/h (2 Bft)
29.09.2013 19:15 11,5 C 19,1 C 11,1 C 11,1 C 9,9 C 0,0 C 68 % 71 % 0 % 1013,8 hPa 0,0 l/m 8,2 km/h (2 Bft) O-NO 67 0 min 0,0 UV-I 5,8 C 8,8 C 8,0 km/h (2 Bft)
29.09.2013 19:20 11,3 C 19,2 C 11,1 C 10,9 C 9,7 C 0,0 C 68 % 71 % 0 % 1013,8 hPa 0,0 l/m 9,0 km/h (2 Bft) O 90 0 min 0,0 UV-I 5,6 C 8,5 C 7,6 km/h (2 Bft)
29.09.2013 19:25 11,2 C 19,2 C 10,9 C 10,8 C 9,6 C 0,0 C 68 % 71 % 0 % 1013,8 hPa 0,0 l/m 8,9 km/h (2 Bft) O-SO 112 0 min 0,0 UV-I 5,5 C 8,4 C 10,1 km/h (2 Bft)
29.09.2013 19:30 11,1 C 19,2 C 10,8 C 10,6 C 9,6 C 0,0 C 68 % 72 % 0 % 1013,9 hPa 0,0 l/m 7,9 km/h (2 Bft) NW 315 0 min 0,0 UV-I 5,4 C 8,6 C 7,4 km/h (2 Bft)
29.09.2013 19:35 11,0 C 19,2 C 10,7 C 10,5 C 9,6 C 0,0 C 69 % 72 % 0 % 1013,9 hPa 0,0 l/m 7,9 km/h (2 Bft) O-NO 67 0 min 0,0 UV-I 5,5 C 8,6 C 9,5 km/h (2 Bft)
29.09.2013 19:40 10,9 C 19,2 C 10,7 C 10,5 C 9,4 C 0,0 C 69 % 72 % 0 % 1013,9 hPa 0,0 l/m 7,7 km/h (2 Bft) O-SO 112 0 min 0,0 UV-I 5,4 C 8,4 C 8,7 km/h (2 Bft)
29.09.2013 19:45 10,8 C 19,2 C 10,5 C 10,4 C 9,3 C 0,0 C 69 % 72 % 0 % 1013,9 hPa 0,0 l/m 7,9 km/h (2 Bft) O-SO 112 0 min 0,0 UV-I 5,3 C 8,2 C 8,2 km/h (2 Bft)
29.09.2013 19:50 10,8 C 19,2 C 10,4 C 10,4 C 9,2 C 0,0 C 69 % 72 % 0 % 1013,9 hPa 0,0 l/m 8,0 km/h (2 Bft) O 90 0 min 0,0 UV-I 5,3 C 8,1 C 11,1 km/h (2 Bft)
29.09.2013 19:55 10,7 C 19,2 C 10,5 C 10,3 C 9,1 C 0,0 C 69 % 72 % 0 % 1013,9 hPa 0,0 l/m 8,4 km/h (2 Bft) O-NO 67 0 min 0,0 UV-I 5,2 C 7,9 C 7,9 km/h (2 Bft)
29.09.2013 20:00 10,7 C 19,2 C 10,3 C 10,2 C 9,1 C 0,0 C 69 % 72 % 0 % 1013,9 hPa 0,0 l/m 8,4 km/h (2 Bft) O 90 0 min 0,0 UV-I 5,2 C 7,9 C 11,6 km/h (2 Bft)
29.09.2013 20:05 10,7 C 19,2 C 10,3 C 10,2 C 8,9 C 0,0 C 69 % 72 % 0 % 1013,9 hPa 0,0 l/m 8,4 km/h (2 Bft) O-NO 67 0 min 0,0 UV-I 5,2 C 7,6 C 10,3 km/h (2 Bft)
29.09.2013 20:10 10,5 C 19,3 C 10,3 C 10,1 C 8,7 C 0,0 C 70 % 72 % 0 % 1013,9 hPa 0,0 l/m 8,7 km/h (2 Bft) O-NO 67 0 min 0,0 UV-I 5,3 C 7,3 C 8,5 km/h (2 Bft)
29.09.2013 20:15 10,4 C 19,3 C 10,1 C 10,0 C 8,8 C 0,0 C 69 % 73 % 0 % 1013,9 hPa 0,0 l/m 8,2 km/h (2 Bft) O-NO 67 0 min 0,0 UV-I 5,0 C 7,6 C 9,2 km/h (2 Bft)
29.09.2013 20:20 10,3 C 19,3 C 10,0 C 9,9 C 8,7 C 0,0 C 70 % 73 % 0 % 1013,9 hPa 0,0 l/m 7,7 km/h (2 Bft) O-SO 112 0 min 0,0 UV-I 5,1 C 7,5 C 4,8 km/h (1 Bft)
29.09.2013 20:25 10,2 C 19,3 C 10,0 C 9,8 C 8,6 C 0,0 C 70 % 73 % 0 % 1013,9 hPa 0,0 l/m 7,9 km/h (2 Bft) O-NO 67 0 min 0,0 UV-I 5,0 C 7,4 C 8,2 km/h (2 Bft)
29.09.2013 20:30 10,1 C 19,3 C 9,9 C 9,6 C 8,5 C 0,0 C 70 % 74 % 0 % 1013,8 hPa 0,0 l/m 7,4 km/h (2 Bft) O-NO 67 0 min 0,0 UV-I 4,9 C 7,4 C 9,5 km/h (2 Bft)
29.09.2013 20:35 10,1 C 19,3 C 9,9 C 9,6 C 8,6 C 0,0 C 71 % 74 % 0 % 1013,8 hPa 0,0 l/m 7,2 km/h (2 Bft) O-NO 67 0 min 0,0 UV-I 5,1 C 7,5 C 8,0 km/h (2 Bft)
29.09.2013 20:40 10,1 C 19,3 C 9,7 C 9,6 C 8,6 C 0,0 C 71 % 74 % 0 % 1013,8 hPa 0,0 l/m 6,8 km/h (2 Bft) O 90 0 min 0,0 UV-I 5,1 C 7,6 C 6,0 km/h (2 Bft)
29.09.2013 20:45 10,1 C 19,3 C 9,7 C 9,5 C 8,4 C 0,0 C 71 % 74 % 0 % 1013,8 hPa 0,0 l/m 7,2 km/h (2 Bft) NO 45 0 min 0,0 UV-I 5,1 C 7,3 C 8,7 km/h (2 Bft)
29.09.2013 20:50 9,9 C 19,3 C 9,6 C 9,3 C 8,2 C 0,0 C 72 % 74 % 0 % 1013,9 hPa 0,0 l/m 7,6 km/h (2 Bft) O-NO 67 0 min 0,0 UV-I 5,1 C 7,0 C 9,0 km/h (2 Bft)
29.09.2013 20:55 9,8 C 19,3 C 9,6 C 9,3 C 8,3 C 0,0 C 71 % 74 % 0 % 1013,9 hPa 0,0 l/m 7,1 km/h (2 Bft) O-NO 67 0 min 0,0 UV-I 4,8 C 7,2 C 12,1 km/h (2 Bft)
29.09.2013 21:00 9,9 C 19,3 C 9,5 C 9,4 C 8,3 C 0,0 C 72 % 74 % 0 % 1013,9 hPa 0,0 l/m 6,8 km/h (2 Bft) O 90 0 min 0,0 UV-I 5,1 C 7,3 C 6,9 km/h (2 Bft)
29.09.2013 21:05 9,7 C 19,3 C 9,5 C 9,2 C 8,3 C 0,0 C 71 % 75 % 0 % 1013,9 hPa 0,0 l/m 6,6 km/h (2 Bft) O-SO 112 0 min 0,0 UV-I 4,7 C 7,4 C 11,3 km/h (2 Bft)
29.09.2013 21:10 9,6 C 19,3 C 9,4 C 9,1 C 8,2 C 0,0 C 72 % 75 % 0 % 1014,1 hPa 0,0 l/m 6,9 km/h (2 Bft) O-SO 112 0 min 0,0 UV-I 4,8 C 7,2 C 8,0 km/h (2 Bft)
29.09.2013 21:15 9,6 C 19,3 C 9,3 C 9,1 C 8,0 C 0,0 C 72 % 75 % 0 % 1014,1 hPa 0,0 l/m 7,1 km/h (2 Bft) O 90 0 min 0,0 UV-I 4,8 C 6,9 C 7,2 km/h (2 Bft)
29.09.2013 21:20 9,6 C 19,3 C 9,2 C 9,1 C 8,1 C 0,0 C 72 % 75 % 0 % 1014,1 hPa 0,0 l/m 6,3 km/h (2 Bft) O-NO 67 0 min 0,0 UV-I 4,8 C 7,2 C 7,4 km/h (2 Bft)
29.09.2013 21:25 9,5 C 19,3 C 9,3 C 9,1 C 8,2 C 0,0 C 72 % 75 % 0 % 1014,1 hPa 0,0 l/m 6,1 km/h (2 Bft) O-NO 67 0 min 0,0 UV-I 4,7 C 7,4 C 5,8 km/h (2 Bft)
29.09.2013 21:30 9,4 C 19,3 C 9,2 C 8,9 C 7,9 C 0,0 C 72 % 75 % 0 % 1013,9 hPa 0,0 l/m 6,4 km/h (2 Bft) O-NO 67 0 min 0,0 UV-I 4,6 C 6,9 C 6,3 km/h (2 Bft)
29.09.2013 21:35 9,5 C 19,3 C 9,1 C 9,0 C 7,9 C 0,0 C 72 % 75 % 0 % 1013,9 hPa 0,0 l/m 6,4 km/h (2 Bft) O-SO 112 0 min 0,0 UV-I 4,7 C 6,9 C 4,8 km/h (1 Bft)
29.09.2013 21:40 9,3 C 19,2 C 9,1 C 8,9 C 8,0 C 0,0 C 72 % 76 % 0 % 1013,9 hPa 0,0 l/m 6,0 km/h (2 Bft) O-NO 67 0 min 0,0 UV-I 4,5 C 7,2 C 6,0 km/h (2 Bft)
29.09.2013 21:45 9,2 C 19,2 C 9,0 C 8,8 C 7,9 C 0,0 C 73 % 75 % 0 % 1013,9 hPa 0,0 l/m 5,8 km/h (2 Bft) O-NO 67 0 min 0,0 UV-I 4,6 C 7,1 C 4,8 km/h (1 Bft)
29.09.2013 21:50 9,1 C 19,2 C 8,8 C 8,7 C 7,8 C 0,0 C 73 % 76 % 0 % 1013,8 hPa 0,0 l/m 5,3 km/h (1 Bft) O-NO 67 0 min 0,0 UV-I 4,5 C 7,2 C 5,5 km/h (1 Bft)
29.09.2013 21:55 9,1 C 19,2 C 8,8 C 8,7 C 8,0 C 0,0 C 73 % 76 % 0 % 1013,8 hPa 0,0 l/m 4,7 km/h (1 Bft) O-NO 67 0 min 0,0 UV-I 4,5 C 7,6 C 8,0 km/h (2 Bft)
29.09.2013 22:00 9,1 C 19,2 C 8,8 C 8,7 C 7,8 C 0,0 C 73 % 76 % 0 % 1013,8 hPa 0,0 l/m 4,7 km/h (1 Bft) O-NO 67 0 min 0,0 UV-I 4,5 C 7,4 C 4,0 km/h (1 Bft)
29.09.2013 22:05 8,9 C 19,2 C 8,7 C 8,6 C 7,9 C 0,0 C 73 % 76 % 0 % 1013,8 hPa 0,0 l/m 4,3 km/h (1 Bft) O-NO 67 0 min 0,0 UV-I 4,3 C 7,9 C 4,3 km/h (1 Bft)
29.09.2013 22:10 8,8 C 19,2 C 8,7 C 8,5 C 7,8 C 0,0 C 74 % 77 % 0 % 1013,9 hPa 0,0 l/m 4,0 km/h (1 Bft) O 90 0 min 0,0 UV-I 4,4 C 7,8 C 5,8 km/h (2 Bft)
29.09.2013 22:15 8,8 C 19,2 C 8,5 C 8,4 C 7,7 C 0,0 C 74 % 77 % 0 % 1013,9 hPa 0,0 l/m 4,2 km/h (1 Bft) O-NO 67 0 min 0,0 UV-I 4,4 C 7,7 C 5,3 km/h (1 Bft)
29.09.2013 22:20 8,7 C 19,2 C 8,5 C 8,3 C 7,5 C 0,0 C 75 % 77 % 0 % 1013,9 hPa 0,0 l/m 4,0 km/h (1 Bft) O-NO 67 0 min 0,0 UV-I 4,5 C 7,5 C 4,0 km/h (1 Bft)
29.09.2013 22:25 8,6 C 19,2 C 8,4 C 8,2 C 7,5 C 0,0 C 75 % 77 % 0 % 1013,9 hPa 0,0 l/m 4,0 km/h (1 Bft) O-SO 112 0 min 0,0 UV-I 4,4 C 7,5 C 6,1 km/h (2 Bft)
29.09.2013 22:30 8,5 C 19,2 C 8,4 C 8,1 C 7,3 C 0,0 C 75 % 77 % 0 % 1013,8 hPa 0,0 l/m 4,5 km/h (1 Bft) O-NO 67 0 min 0,0 UV-I 4,3 C 7,3 C 3,5 km/h (1 Bft)
29.09.2013 22:35 8,5 C 19,2 C 8,3 C 8,1 C 7,3 C 0,0 C 75 % 77 % 0 % 1013,8 hPa 0,0 l/m 4,7 km/h (1 Bft) O-NO 67 0 min 0,0 UV-I 4,3 C 6,8 C 5,5 km/h (1 Bft)
29.09.2013 22:40 8,4 C 19,2 C 8,3 C 8,0 C 7,3 C 0,0 C 75 % 77 % 0 % 1013,8 hPa 0,0 l/m 4,2 km/h (1 Bft) O 90 0 min 0,0 UV-I 4,2 C 7,3 C 3,9 km/h (1 Bft)
29.09.2013 22:45 8,4 C 19,2 C 8,3 C 8,1 C 7,4 C 0,0 C 75 % 77 % 0 % 1013,8 hPa 0,0 l/m 3,7 km/h (1 Bft) O-SO 112 0 min 0,0 UV-I 4,2 C 7,4 C 4,0 km/h (1 Bft)
29.09.2013 22:50 8,2 C 19,2 C 8,0 C 7,9 C 7,4 C 0,0 C 75 % 78 % 0 % 1014,0 hPa 0,0 l/m 3,2 km/h (1 Bft) O-NO 67 0 min 0,0 UV-I 4,0 C 7,4 C 5,3 km/h (1 Bft)
29.09.2013 22:55 8,1 C 19,2 C 8,0 C 7,8 C 7,3 C 0,0 C 76 % 78 % 0 % 1014,0 hPa 0,0 l/m 3,4 km/h (1 Bft) O-SO 112 0 min 0,0 UV-I 4,1 C 7,3 C 4,5 km/h (1 Bft)
29.09.2013 23:00 8,1 C 19,2 C 8,0 C 7,7 C 6,9 C 0,0 C 76 % 78 % 0 % 1014,0 hPa 0,0 l/m 4,0 km/h (1 Bft) O 90 0 min 0,0 UV-I 4,1 C 6,9 C 6,0 km/h (2 Bft)
29.09.2013 23:05 8,0 C 19,2 C 8,0 C 7,6 C 6,8 C 0,0 C 76 % 78 % 0 % 1014,0 hPa 0,0 l/m 4,5 km/h (1 Bft) O 90 0 min 0,0 UV-I 4,0 C 6,8 C 3,9 km/h (1 Bft)
29.09.2013 23:10 8,0 C 19,2 C 7,8 C 7,6 C 6,8 C 0,0 C 77 % 78 % 0 % 1014,0 hPa 0,0 l/m 4,5 km/h (1 Bft) O 90 0 min 0,0 UV-I 4,2 C 6,8 C 5,5 km/h (1 Bft)
29.09.2013 23:15 7,9 C 19,2 C 7,9 C 7,5 C 6,7 C 0,0 C 77 % 79 % 0 % 1014,0 hPa 0,0 l/m 4,5 km/h (1 Bft) O-NO 67 0 min 0,0 UV-I 4,1 C 6,7 C 5,8 km/h (2 Bft)
29.09.2013 23:20 7,8 C 19,2 C 7,8 C 7,3 C 6,4 C 0,0 C 77 % 79 % 0 % 1014,0 hPa 0,0 l/m 4,8 km/h (1 Bft) O 90 0 min 0,0 UV-I 4,0 C 5,7 C 5,8 km/h (2 Bft)
29.09.2013 23:25 7,9 C 19,2 C 7,7 C 7,4 C 6,4 C 0,0 C 77 % 79 % 0 % 1014,0 hPa 0,0 l/m 4,7 km/h (1 Bft) O 90 0 min 0,0 UV-I 4,1 C 5,8 C 5,1 km/h (1 Bft)
29.09.2013 23:30 7,7 C 19,2 C 7,6 C 7,2 C 6,3 C 0,0 C 78 % 79 % 0 % 1013,8 hPa 0,0 l/m 4,8 km/h (1 Bft) O-NO 67 0 min 0,0 UV-I 4,1 C 5,6 C 5,8 km/h (2 Bft)
29.09.2013 23:35 7,6 C 19,2 C 7,7 C 7,1 C 6,2 C 0,0 C 78 % 80 % 0 % 1013,8 hPa 0,0 l/m 5,0 km/h (1 Bft) O-SO 112 0 min 0,0 UV-I 4,0 C 5,4 C 7,1 km/h (2 Bft)
29.09.2013 23:40 7,6 C 19,2 C 7,5 C 7,1 C 6,2 C 0,0 C 78 % 80 % 0 % 1013,8 hPa 0,0 l/m 4,7 km/h (1 Bft) O-NO 67 0 min 0,0 UV-I 4,0 C 5,6 C 5,3 km/h (1 Bft)
29.09.2013 23:45 7,5 C 19,2 C 7,5 C 7,1 C 6,2 C 0,0 C 78 % 80 % 0 % 1013,8 hPa 0,0 l/m 4,5 km/h (1 Bft) O 90 0 min 0,0 UV-I 3,9 C 6,2 C 4,2 km/h (1 Bft)
29.09.2013 23:50 7,4 C 19,2 C 7,3 C 7,0 C 6,1 C 0,0 C 79 % 80 % 0 % 1013,9 hPa 0,0 l/m 4,5 km/h (1 Bft) O-NO 67 0 min 0,0 UV-I 4,0 C 6,1 C 4,0 km/h (1 Bft)
29.09.2013 23:55 7,3 C 19,2 C 7,2 C 6,8 C 5,9 C 0,0 C 79 % 80 % 0 % 1013,9 hPa 0,0 l/m 4,5 km/h (1 Bft) SO 135 0 min 0,0 UV-I 3,9 C 5,9 C 7,1 km/h (2 Bft)
_ Min-Zeit 04:55 09:10 05:10 04:45 04:40 00:00 14:40 15:25 00:00 17:50 - 00:00 - - - 00:00 04:55 04:40 00:00
Minimum _ 2,4 C 18,4 C 3,9 C 2,4 C 2,3 C 0,0 C 48 % 53 % 0 % 1013,2 hPa - 0,0 km/h (0 Bft) - - - 0,0 UV-I 0,8 C 2,3 C 0,0 km/h (0 Bft)
_ Max-Zeit 15:20 00:00 15:55 15:55 15:55 13:35 05:15 05:40 13:35 00:58 00:00 14:05 - - 12:58 00:00 17:30 15:55 13:40
Maximum _ 15,1 C 19,5 C 15,1 C 18,5 C 18,5 C 3,5 C 90 % 86 % 92 % 1015,6 hPa 0,0 l/m 12,7 km/h
O-NO (3 Bft)
- - 17 min 0,0 UV-I 6,5 C 18,5 C 23,2 km/h
O (4 Bft)
Durchschnitt _ 8,8 C 18,9 C 9,1 C 9,4 C 9,2 C 0,7 C 73 % 74 % 19 % 1014,6 hPa #0,0 l/m 5,5 km/h (1 Bft) O-NO - #2:44 h 0,0 UV-I 3,9 C 8,9 C 6,8 km/h (2 Bft)
2013 www.wetterstation-wechselburg.de